Aviation Digital Data Service (ADDS)

Output produced by METARs form (2155 UTC 19 February 2018)
found at http://www.aviationweather.gov/adds/metars/
 
DNAA 191700Z 25003KT 230V290 9999 FEW014 FEW021CB 35/17 Q1008 TEMPO 05018G34KT 5000 TSRA SQ BLSA BKN011 FEW020CB
TAF DNAA 191530Z 1918/2024 27005KT 9999 SCT015 FEW022CB 
     TEMPO 1918/1922 06025KT 5000 -TSRA SQ BLSA BKN011 FEW020CB 
     PROB40 
     TEMPO 1919/2004 5000 HZ NSC 
     PROB30 
     TEMPO 2004/2010 3000
       
DNAA 191700Z 25003KT 230V290 9999 FEW014 FEW021CB 35/17 Q1008 TEMPO 05018G34KT 5000 TSRA SQ BLSA BKN011 FEW020CB
TAF DNAA 191530Z 1918/2024 27005KT 9999 SCT015 FEW022CB 
     TEMPO 1918/1922 06025KT 5000 -TSRA SQ BLSA BKN011 FEW020CB 
     PROB40 
     TEMPO 1919/2004 5000 HZ NSC 
     PROB30 
     TEMPO 2004/2010 3000
       
TAF DNAK 191530Z 1918/2024 VRB02KT 8000 FEW013 
     BECMG 2008/2010 24010KT BKN014 
     TEMPO 2013/2017 SCT013 FEW020CB
       
TAF DNBE 191530Z 1918/2024 VRB02KT 8000 FEW010 
     PROB30 
     TEMPO 1918/1922 TS FEW010 FEW020CB 
     TEMPO 2005/2007 3000 BR 
     BECMG 2008/2010 23010KT BKN013
       
TAF DNCA 191542Z 1918/2024 VRB02KT 7000 BKN010 FEW020CB 
     TEMPO 1918/1922 TS 
     PROB30 1919/1922 5000-TSRA BKN008 FEW018C 
     BECMG 1923/2001 SCT009 
     PROB30 
     TEMPO 2005/2007 5000 BR
       
TAF DNEN 191542Z 1918/2024 VRB02KT 9999 BKN010 
     TEMPO 1920/1923 TS BKN009 FEW021CB 
     BECMG 2000/2002 FEW009
       
TAF DNGO 190930Z 1912/2018 07010KT 5000 HZ NSC 
     BECMG 1913/1915 CAVOK
       
TAF DNIB 191530Z 1918/2024 VRB02KT 8000 FEW013 
     BECMG 2008/2010 23010KT BKN014 
     TEMPO 2013/2017 SCT013 FEW020CB
       
TAF DNIL 191530Z 1918/2024 07006KT 9999 FEW014 FEW021CB 
     PROB40 
     TEMPO 1918/1921 05018G34KT 5000 TSRA SQ BKN010 
     BECMG 2008/2010 22010KT BKN010 
     PROB40 2012/2016 SCT014
       
TAF DNIM 191542Z 1918/2024 VRB02KT 7000 TS BKN010 FEW020CB 
     TEMPO 1919/1923 5000-TSRA BKN008 FEW018CB 
     BECMG 2000/2002 NSW SCT010 
     TEMPO 2005/2007 5000 BR
       
TAF DNJO 191530Z 1918/2024 23010KT 6000 -TSRA BKN009 FEW018CB 
     BECMG 1918/1920 9000 NSW NSC 
     BECMG 2008/2010 24008KT 9999 BKN009
       
TAF DNKA 191530Z 1918/2024 07007KT 3000 HZ NSC 
     BECMG 2008/2010 5000 
     BECMG 2012/2014 8000 NSW
       
DNKN 192000Z 02003KT 6000 NSW NSC 24/10 Q1013 NOSIG
TAF DNKN 191540Z 1918/2024 08008KT 5000 HZ NSC 
     BECMG 1921/1923 8000 NSW
       
TAF DNKT 190930Z 1912/2018 08007KT 1000 DU NSC 
     BECMG 1912/1914 3000 HZ 
     BECMG 1915/1917 6000 NSW
       
TAF DNMA 190930Z 1912/2018 08010KT 5000 HZ NSC 
     BECMG 1913/1915 8000 NSW
       
DNMM 192100Z 19004KT 9999 FEW013 28/25 Q1011 NOSIG
TAF DNMM 191530Z 1918/2024 19006KT 9999 FEW013 
     BECMG 2008/2010 25010KT BKN014 
     TEMPO 2011/2016 BKN014 FEW020CB
       
TAF DNMN 191530Z 1918/2024 23007KT 6000 NSC 
     PROB30 
     TEMPO 1918/1920 FEW023CB 
     PROB40 2004/2010 3000 HZ
       
DNPO 192100Z 20004KT 6000 SCT009 28/25 Q1009 NOSIG
TAF DNPO 191542Z 1918/2024 VRB02KT 6000 BKN010 FEW020CB 
     TEMPO 1918/1923 TS 
     PROB30 1920/1923 5000-TSRA BKN008 FEW019CB 
     BECMG 1923/2001 SCT008 
     TEMPO 2004/2007 5000 BR 
     PROB30 2005/2007 0800 FG VV004
       
TAF DNSO 190930Z 1912/2018 09010KT 1000 DU NSC 
     BECMG 1915/1917 3000 HZ
       
TAF DNYO 190930Z 1912/2018 06008KT 5000 HZ NSC 
     BECMG 1913/1915 CAVOK
       
TAF DNAK 191530Z 1918/2024 VRB02KT 8000 FEW013 
     BECMG 2008/2010 24010KT BKN014 
     TEMPO 2013/2017 SCT013 FEW020CB
       
DNAA 191700Z 25003KT 230V290 9999 FEW014 FEW021CB 35/17 Q1008 TEMPO 05018G34KT 5000 TSRA SQ BLSA BKN011 FEW020CB
TAF DNAA 191530Z 1918/2024 27005KT 9999 SCT015 FEW022CB 
     TEMPO 1918/1922 06025KT 5000 -TSRA SQ BLSA BKN011 FEW020CB 
     PROB40 
     TEMPO 1919/2004 5000 HZ NSC 
     PROB30 
     TEMPO 2004/2010 3000
       
TAF DNAK 191530Z 1918/2024 VRB02KT 8000 FEW013 
     BECMG 2008/2010 24010KT BKN014 
     TEMPO 2013/2017 SCT013 FEW020CB
       
TAF DNBE 191530Z 1918/2024 VRB02KT 8000 FEW010 
     PROB30 
     TEMPO 1918/1922 TS FEW010 FEW020CB 
     TEMPO 2005/2007 3000 BR 
     BECMG 2008/2010 23010KT BKN013
       
TAF DNCA 191542Z 1918/2024 VRB02KT 7000 BKN010 FEW020CB 
     TEMPO 1918/1922 TS 
     PROB30 1919/1922 5000-TSRA BKN008 FEW018C 
     BECMG 1923/2001 SCT009 
     PROB30 
     TEMPO 2005/2007 5000 BR
       
TAF DNEN 191542Z 1918/2024 VRB02KT 9999 BKN010 
     TEMPO 1920/1923 TS BKN009 FEW021CB 
     BECMG 2000/2002 FEW009
       
TAF DNGO 190930Z 1912/2018 07010KT 5000 HZ NSC 
     BECMG 1913/1915 CAVOK
       
TAF DNIB 191530Z 1918/2024 VRB02KT 8000 FEW013 
     BECMG 2008/2010 23010KT BKN014 
     TEMPO 2013/2017 SCT013 FEW020CB
       
TAF DNIL 191530Z 1918/2024 07006KT 9999 FEW014 FEW021CB 
     PROB40 
     TEMPO 1918/1921 05018G34KT 5000 TSRA SQ BKN010 
     BECMG 2008/2010 22010KT BKN010 
     PROB40 2012/2016 SCT014
       
TAF DNIM 191542Z 1918/2024 VRB02KT 7000 TS BKN010 FEW020CB 
     TEMPO 1919/1923 5000-TSRA BKN008 FEW018CB 
     BECMG 2000/2002 NSW SCT010 
     TEMPO 2005/2007 5000 BR
       
TAF DNJO 191530Z 1918/2024 23010KT 6000 -TSRA BKN009 FEW018CB 
     BECMG 1918/1920 9000 NSW NSC 
     BECMG 2008/2010 24008KT 9999 BKN009
       
TAF DNKA 191530Z 1918/2024 07007KT 3000 HZ NSC 
     BECMG 2008/2010 5000 
     BECMG 2012/2014 8000 NSW
       
DNKN 192000Z 02003KT 6000 NSW NSC 24/10 Q1013 NOSIG
TAF DNKN 191540Z 1918/2024 08008KT 5000 HZ NSC 
     BECMG 1921/1923 8000 NSW
       
TAF DNKT 190930Z 1912/2018 08007KT 1000 DU NSC 
     BECMG 1912/1914 3000 HZ 
     BECMG 1915/1917 6000 NSW
       
TAF DNMA 190930Z 1912/2018 08010KT 5000 HZ NSC 
     BECMG 1913/1915 8000 NSW
       
DNMM 192100Z 19004KT 9999 FEW013 28/25 Q1011 NOSIG
TAF DNMM 191530Z 1918/2024 19006KT 9999 FEW013 
     BECMG 2008/2010 25010KT BKN014 
     TEMPO 2011/2016 BKN014 FEW020CB
       
TAF DNMN 191530Z 1918/2024 23007KT 6000 NSC 
     PROB30 
     TEMPO 1918/1920 FEW023CB 
     PROB40 2004/2010 3000 HZ
       
DNPO 192100Z 20004KT 6000 SCT009 28/25 Q1009 NOSIG
TAF DNPO 191542Z 1918/2024 VRB02KT 6000 BKN010 FEW020CB 
     TEMPO 1918/1923 TS 
     PROB30 1920/1923 5000-TSRA BKN008 FEW019CB 
     BECMG 1923/2001 SCT008 
     TEMPO 2004/2007 5000 BR 
     PROB30 2005/2007 0800 FG VV004
       
TAF DNSO 190930Z 1912/2018 09010KT 1000 DU NSC 
     BECMG 1915/1917 3000 HZ
       
TAF DNYO 190930Z 1912/2018 06008KT 5000 HZ NSC 
     BECMG 1913/1915 CAVOK
       
TAF DNBE 191530Z 1918/2024 VRB02KT 8000 FEW010 
     PROB30 
     TEMPO 1918/1922 TS FEW010 FEW020CB 
     TEMPO 2005/2007 3000 BR 
     BECMG 2008/2010 23010KT BKN013
       
TAF DNCA 191542Z 1918/2024 VRB02KT 7000 BKN010 FEW020CB 
     TEMPO 1918/1922 TS 
     PROB30 1919/1922 5000-TSRA BKN008 FEW018C 
     BECMG 1923/2001 SCT009 
     PROB30 
     TEMPO 2005/2007 5000 BR
       
DNAA 191700Z 25003KT 230V290 9999 FEW014 FEW021CB 35/17 Q1008 TEMPO 05018G34KT 5000 TSRA SQ BLSA BKN011 FEW020CB
TAF DNAA 191530Z 1918/2024 27005KT 9999 SCT015 FEW022CB 
     TEMPO 1918/1922 06025KT 5000 -TSRA SQ BLSA BKN011 FEW020CB 
     PROB40 
     TEMPO 1919/2004 5000 HZ NSC 
     PROB30 
     TEMPO 2004/2010 3000
       
TAF DNAK 191530Z 1918/2024 VRB02KT 8000 FEW013 
     BECMG 2008/2010 24010KT BKN014 
     TEMPO 2013/2017 SCT013 FEW020CB
       
TAF DNBE 191530Z 1918/2024 VRB02KT 8000 FEW010 
     PROB30 
     TEMPO 1918/1922 TS FEW010 FEW020CB 
     TEMPO 2005/2007 3000 BR 
     BECMG 2008/2010 23010KT BKN013
       
TAF DNCA 191542Z 1918/2024 VRB02KT 7000 BKN010 FEW020CB 
     TEMPO 1918/1922 TS 
     PROB30 1919/1922 5000-TSRA BKN008 FEW018C 
     BECMG 1923/2001 SCT009 
     PROB30 
     TEMPO 2005/2007 5000 BR
       
TAF DNEN 191542Z 1918/2024 VRB02KT 9999 BKN010 
     TEMPO 1920/1923 TS BKN009 FEW021CB 
     BECMG 2000/2002 FEW009
       
TAF DNGO 190930Z 1912/2018 07010KT 5000 HZ NSC 
     BECMG 1913/1915 CAVOK
       
TAF DNIB 191530Z 1918/2024 VRB02KT 8000 FEW013 
     BECMG 2008/2010 23010KT BKN014 
     TEMPO 2013/2017 SCT013 FEW020CB
       
TAF DNIL 191530Z 1918/2024 07006KT 9999 FEW014 FEW021CB 
     PROB40 
     TEMPO 1918/1921 05018G34KT 5000 TSRA SQ BKN010 
     BECMG 2008/2010 22010KT BKN010 
     PROB40 2012/2016 SCT014
       
TAF DNIM 191542Z 1918/2024 VRB02KT 7000 TS BKN010 FEW020CB 
     TEMPO 1919/1923 5000-TSRA BKN008 FEW018CB 
     BECMG 2000/2002 NSW SCT010 
     TEMPO 2005/2007 5000 BR
       
TAF DNJO 191530Z 1918/2024 23010KT 6000 -TSRA BKN009 FEW018CB 
     BECMG 1918/1920 9000 NSW NSC 
     BECMG 2008/2010 24008KT 9999 BKN009
       
TAF DNKA 191530Z 1918/2024 07007KT 3000 HZ NSC 
     BECMG 2008/2010 5000 
     BECMG 2012/2014 8000 NSW
       
DNKN 192000Z 02003KT 6000 NSW NSC 24/10 Q1013 NOSIG
TAF DNKN 191540Z 1918/2024 08008KT 5000 HZ NSC 
     BECMG 1921/1923 8000 NSW
       
TAF DNKT 190930Z 1912/2018 08007KT 1000 DU NSC 
     BECMG 1912/1914 3000 HZ 
     BECMG 1915/1917 6000 NSW
       
TAF DNMA 190930Z 1912/2018 08010KT 5000 HZ NSC 
     BECMG 1913/1915 8000 NSW
       
DNMM 192100Z 19004KT 9999 FEW013 28/25 Q1011 NOSIG
TAF DNMM 191530Z 1918/2024 19006KT 9999 FEW013 
     BECMG 2008/2010 25010KT BKN014 
     TEMPO 2011/2016 BKN014 FEW020CB
       
TAF DNMN 191530Z 1918/2024 23007KT 6000 NSC 
     PROB30 
     TEMPO 1918/1920 FEW023CB 
     PROB40 2004/2010 3000 HZ
       
DNPO 192100Z 20004KT 6000 SCT009 28/25 Q1009 NOSIG
TAF DNPO 191542Z 1918/2024 VRB02KT 6000 BKN010 FEW020CB 
     TEMPO 1918/1923 TS 
     PROB30 1920/1923 5000-TSRA BKN008 FEW019CB 
     BECMG 1923/2001 SCT008 
     TEMPO 2004/2007 5000 BR 
     PROB30 2005/2007 0800 FG VV004
       
TAF DNSO 190930Z 1912/2018 09010KT 1000 DU NSC 
     BECMG 1915/1917 3000 HZ
       
TAF DNYO 190930Z 1912/2018 06008KT 5000 HZ NSC 
     BECMG 1913/1915 CAVOK
       
TAF DNEN 191542Z 1918/2024 VRB02KT 9999 BKN010 
     TEMPO 1920/1923 TS BKN009 FEW021CB 
     BECMG 2000/2002 FEW009
       
DNAA 191700Z 25003KT 230V290 9999 FEW014 FEW021CB 35/17 Q1008 TEMPO 05018G34KT 5000 TSRA SQ BLSA BKN011 FEW020CB
TAF DNAA 191530Z 1918/2024 27005KT 9999 SCT015 FEW022CB 
     TEMPO 1918/1922 06025KT 5000 -TSRA SQ BLSA BKN011 FEW020CB 
     PROB40 
     TEMPO 1919/2004 5000 HZ NSC 
     PROB30 
     TEMPO 2004/2010 3000
       
TAF DNAK 191530Z 1918/2024 VRB02KT 8000 FEW013 
     BECMG 2008/2010 24010KT BKN014 
     TEMPO 2013/2017 SCT013 FEW020CB
       
TAF DNBE 191530Z 1918/2024 VRB02KT 8000 FEW010 
     PROB30 
     TEMPO 1918/1922 TS FEW010 FEW020CB 
     TEMPO 2005/2007 3000 BR 
     BECMG 2008/2010 23010KT BKN013
       
TAF DNCA 191542Z 1918/2024 VRB02KT 7000 BKN010 FEW020CB 
     TEMPO 1918/1922 TS 
     PROB30 1919/1922 5000-TSRA BKN008 FEW018C 
     BECMG 1923/2001 SCT009 
     PROB30 
     TEMPO 2005/2007 5000 BR
       
TAF DNEN 191542Z 1918/2024 VRB02KT 9999 BKN010 
     TEMPO 1920/1923 TS BKN009 FEW021CB 
     BECMG 2000/2002 FEW009
       
TAF DNGO 190930Z 1912/2018 07010KT 5000 HZ NSC 
     BECMG 1913/1915 CAVOK
       
TAF DNIB 191530Z 1918/2024 VRB02KT 8000 FEW013 
     BECMG 2008/2010 23010KT BKN014 
     TEMPO 2013/2017 SCT013 FEW020CB
       
TAF DNIL 191530Z 1918/2024 07006KT 9999 FEW014 FEW021CB 
     PROB40 
     TEMPO 1918/1921 05018G34KT 5000 TSRA SQ BKN010 
     BECMG 2008/2010 22010KT BKN010 
     PROB40 2012/2016 SCT014
       
TAF DNIM 191542Z 1918/2024 VRB02KT 7000 TS BKN010 FEW020CB 
     TEMPO 1919/1923 5000-TSRA BKN008 FEW018CB 
     BECMG 2000/2002 NSW SCT010 
     TEMPO 2005/2007 5000 BR
       
TAF DNJO 191530Z 1918/2024 23010KT 6000 -TSRA BKN009 FEW018CB 
     BECMG 1918/1920 9000 NSW NSC 
     BECMG 2008/2010 24008KT 9999 BKN009
       
TAF DNKA 191530Z 1918/2024 07007KT 3000 HZ NSC 
     BECMG 2008/2010 5000 
     BECMG 2012/2014 8000 NSW
       
DNKN 192000Z 02003KT 6000 NSW NSC 24/10 Q1013 NOSIG
TAF DNKN 191540Z 1918/2024 08008KT 5000 HZ NSC 
     BECMG 1921/1923 8000 NSW
       
TAF DNKT 190930Z 1912/2018 08007KT 1000 DU NSC 
     BECMG 1912/1914 3000 HZ 
     BECMG 1915/1917 6000 NSW
       
TAF DNMA 190930Z 1912/2018 08010KT 5000 HZ NSC 
     BECMG 1913/1915 8000 NSW
       
DNMM 192100Z 19004KT 9999 FEW013 28/25 Q1011 NOSIG
TAF DNMM 191530Z 1918/2024 19006KT 9999 FEW013 
     BECMG 2008/2010 25010KT BKN014 
     TEMPO 2011/2016 BKN014 FEW020CB
       
TAF DNMN 191530Z 1918/2024 23007KT 6000 NSC 
     PROB30 
     TEMPO 1918/1920 FEW023CB 
     PROB40 2004/2010 3000 HZ
       
DNPO 192100Z 20004KT 6000 SCT009 28/25 Q1009 NOSIG
TAF DNPO 191542Z 1918/2024 VRB02KT 6000 BKN010 FEW020CB 
     TEMPO 1918/1923 TS 
     PROB30 1920/1923 5000-TSRA BKN008 FEW019CB 
     BECMG 1923/2001 SCT008 
     TEMPO 2004/2007 5000 BR 
     PROB30 2005/2007 0800 FG VV004
       
TAF DNSO 190930Z 1912/2018 09010KT 1000 DU NSC 
     BECMG 1915/1917 3000 HZ
       
TAF DNYO 190930Z 1912/2018 06008KT 5000 HZ NSC 
     BECMG 1913/1915 CAVOK
       
TAF DNIB 191530Z 1918/2024 VRB02KT 8000 FEW013 
     BECMG 2008/2010 23010KT BKN014 
     TEMPO 2013/2017 SCT013 FEW020CB
       
TAF DNIL 191530Z 1918/2024 07006KT 9999 FEW014 FEW021CB 
     PROB40 
     TEMPO 1918/1921 05018G34KT 5000 TSRA SQ BKN010 
     BECMG 2008/2010 22010KT BKN010 
     PROB40 2012/2016 SCT014
       
TAF DNJO 191530Z 1918/2024 23010KT 6000 -TSRA BKN009 FEW018CB 
     BECMG 1918/1920 9000 NSW NSC 
     BECMG 2008/2010 24008KT 9999 BKN009
       
TAF DNKA 191530Z 1918/2024 07007KT 3000 HZ NSC 
     BECMG 2008/2010 5000 
     BECMG 2012/2014 8000 NSW
       
DNKN 192000Z 02003KT 6000 NSW NSC 24/10 Q1013 NOSIG
TAF DNKN 191540Z 1918/2024 08008KT 5000 HZ NSC 
     BECMG 1921/1923 8000 NSW
       
DNMM 192100Z 19004KT 9999 FEW013 28/25 Q1011 NOSIG
TAF DNMM 191530Z 1918/2024 19006KT 9999 FEW013 
     BECMG 2008/2010 25010KT BKN014 
     TEMPO 2011/2016 BKN014 FEW020CB
       
TAF DNMA 190930Z 1912/2018 08010KT 5000 HZ NSC 
     BECMG 1913/1915 8000 NSW
       
TAF DNMN 191530Z 1918/2024 23007KT 6000 NSC 
     PROB30 
     TEMPO 1918/1920 FEW023CB 
     PROB40 2004/2010 3000 HZ
       
DNPO 192100Z 20004KT 6000 SCT009 28/25 Q1009 NOSIG
TAF DNPO 191542Z 1918/2024 VRB02KT 6000 BKN010 FEW020CB 
     TEMPO 1918/1923 TS 
     PROB30 1920/1923 5000-TSRA BKN008 FEW019CB 
     BECMG 1923/2001 SCT008 
     TEMPO 2004/2007 5000 BR 
     PROB30 2005/2007 0800 FG VV004
       
TAF DNSO 190930Z 1912/2018 09010KT 1000 DU NSC 
     BECMG 1915/1917 3000 HZ
       
TAF DNYO 190930Z 1912/2018 06008KT 5000 HZ NSC 
     BECMG 1913/1915 CAVOK